Αναφορές METAR Αεροδρομίων

 

LGTS - THESSALONIKI - GREECE
Ενημερώθηκε: 22/03/2019 15:50
Αραιές Νεφώσεις
Αραιές Νεφώσεις
 Ανεμος από ΝΝΔ
Ανεμος: ΝΝΔ 15 km/h
Θερμοκρασία: 18°C
Σημείο Δρόσου: 6°C
Υγρασία: 46%
Βαρόμετρο: 1025 hPa
Clouds: Αραιές Νεφώσεις
Visibility: 10 km
Cloud details: Αραιές Νεφώσεις 762 m
2019/03/22 13:50 LGTS 221350Z 21008KT 9999 FEW025 18/06 Q1025 NOSIG
LGLR - LARTISA - GREECE
Ενημερώθηκε: 22/03/2019 14:50
NOT Current
Μερικώς νεφελώδης
Μερικώς νεφελώδης
 Ανεμος από ΑΝΑ
Ανεμος: ΑΝΑ 11 km/h
Θερμοκρασία: 16°C
Σημείο Δρόσου: 5°C
Υγρασία: 48%
Βαρόμετρο: 1026 hPa
Clouds: Μερικώς νεφελώδης
Visibility: 10 km
Cloud details: Αραιές Νεφώσεις 914 m
Μερικώς νεφελώδης 1829 m
2019/03/22 12:50 LGLR 221250Z 12006KT 9999 FEW030 SCT060 16/05 Q1026 BLU
 
LGKZ - KOZANI - GREECE
Ενημερώθηκε: 22/03/2019 13:50
NOT Current
Σχεδόν νεφελώδης
Σχεδόν νεφελώδης
 Ανεμος από ΑΒΑ
Ανεμος: ΑΒΑ 11 km/h
Θερμοκρασία: 14°C
Σημείο Δρόσου: 3°C
Υγρασία: 48%
Βαρόμετρο: 1027 hPa
Clouds: Σχεδόν νεφελώδης
Visibility: 10 km
Cloud details: Μερικώς νεφελώδης 762 m
Σχεδόν νεφελώδης 2134 m
2019/03/22 11:50 LGKZ 221150Z 07006KT 9999 SCT025 BKN070 14/03 Q1027
LGKV - KAVALA - GREECE
Ενημερώθηκε: 22/03/2019 15:50
Αραιές Νεφώσεις
Αραιές Νεφώσεις
 Ανεμος από ΝΔ
Ανεμος: ΝΔ 17 km/h
Θερμοκρασία: 16°C
Σημείο Δρόσου: 5°C
Υγρασία: 48%
Βαρόμετρο: 1025 hPa
Clouds: Αραιές Νεφώσεις
Visibility: 10 km
Cloud details: Αραιές Νεφώσεις 762 m
2019/03/22 13:50 LGKV 221350Z 23009KT 9999 FEW025 16/05 Q1025
 
LGIO - IOANNINA - GREECE
Ενημερώθηκε: 22/03/2019 14:20
NOT Current
Αραιές Νεφώσεις
Αραιές Νεφώσεις
 Ανεμος από varies
Ανεμος: varies 0 km/h
Θερμοκρασία: 16°C
Σημείο Δρόσου: 1°C
Υγρασία: 36%
Βαρόμετρο: 1023 hPa
Clouds: Αραιές Νεφώσεις
Visibility: 10 km
Cloud details: Αραιές Νεφώσεις 914 m
2019/03/22 12:20 LGIO 221220Z /////KT 9999 FEW030 16/01 Q1023
LGBL - BOLOS - GREECE
Ενημερώθηκε: 22/03/2019 15:50
Αραιές Νεφώσεις
Αραιές Νεφώσεις
 Ανεμος από Α
Ανεμος: Α 19 km/h
Θερμοκρασία: 15°C
Σημείο Δρόσου: 7°C
Υγρασία: 59%
Βαρόμετρο: 1026 hPa
Clouds: Αραιές Νεφώσεις
Visibility: 10 km
Cloud details: Αραιές Νεφώσεις 1219 m
2019/03/22 13:50 LGBL 221350Z 09010KT 9999 FEW040 15/07 Q1026
 
LGMT - MITILINI - GREECE
Ενημερώθηκε: 22/03/2019 15:50
Αίθριος
Αίθριος
 Ανεμος από Β
Ανεμος: Β 19 km/h
Θερμοκρασία: 18°C
Σημείο Δρόσου: 2°C
Υγρασία: 34%
Βαρόμετρο: 1022 hPa
Περίληψη: Αίθριος
Visibility: greater than 10 km
2019/03/22 13:50 LGMT 221350Z 35010KT CAVOK 18/02 Q1022
LGAV - ATHENS - GREECE
Ενημερώθηκε: 22/03/2019 15:50
Αίθριος
Αίθριος
 Ανεμος από ΒΒΑ
Ανεμος: ΒΒΑ 46 km/h, Ριπή: 65 km/h
Θερμοκρασία: 14°C
Σημείο Δρόσου: 4°C
Υγρασία: 51%
Βαρόμετρο: 1024 hPa
Περίληψη: Αίθριος
Visibility: greater than 10 km
2019/03/22 13:50 LGAV 221350Z 03025G35KT CAVOK 14/04 Q1024 NOSIG
 
LGRP - RODOS - GREECE
Ενημερώθηκε: 22/03/2019 15:50
Αραιές Νεφώσεις
Αραιές Νεφώσεις
 Ανεμος από ΔΝΔ
Ανεμος: ΔΝΔ 15 km/h
Θερμοκρασία: 21°C
Σημείο Δρόσου: 11°C
Υγρασία: 53%
Βαρόμετρο: 1016 hPa
Clouds: Αραιές Νεφώσεις
Visibility: 10 km
Cloud details: Αραιές Νεφώσεις 610 m
2019/03/22 13:50 LGRP 221350Z 25008KT 9999 FEW020 21/11 Q1016 NOSIG
LGIR - HRAKLIO/KRITI - GREECE
Ενημερώθηκε: 22/03/2019 15:50
Μερικώς νεφελώδης
Μερικώς νεφελώδης
 Ανεμος από ΒΔ
Ανεμος: ΒΔ 22 km/h
Θερμοκρασία: 17°C
Σημείο Δρόσου: 10°C
Υγρασία: 64%
Βαρόμετρο: 1020 hPa
Clouds: Μερικώς νεφελώδης
Visibility: 10 km
Cloud details: Μερικώς νεφελώδης 762 m
2019/03/22 13:50 LGIR 221350Z 32012KT 9999 SCT025 17/10 Q1020 NOSIG
 
LGMK - MIKONOS - GREECE
Ενημερώθηκε: 22/03/2019 15:50
Αίθριος
Αίθριος
 Ανεμος από Β
Ανεμος: Β 48 km/h, Ριπή: 67 km/h
Θερμοκρασία: 16°C
Σημείο Δρόσου: 8°C
Υγρασία: 59%
Βαρόμετρο: 1020 hPa
Περίληψη: Αίθριος
Visibility: greater than 10 km
2019/03/22 13:50 LGMK 221350Z 35026G36KT CAVOK 16/08 Q1020
LGKR - KERKIRA - GREECE
Ενημερώθηκε: 22/03/2019 15:50
Αραιές Νεφώσεις
Αραιές Νεφώσεις
 Ανεμος από ΝΔ
Ανεμος: ΝΔ 24 km/h
Θερμοκρασία: 21°C
Σημείο Δρόσου: 4°C
Υγρασία: 33%
Βαρόμετρο: 1022 hPa
Clouds: Αραιές Νεφώσεις
Visibility: 10 km
Cloud details: Αραιές Νεφώσεις 610 m
2019/03/22 13:50 LGKR 221350Z 22013KT 9999 FEW020 21/04 Q1022 NOSIG